sensor_id;sensor_type;location;lat;lon;timestamp;temperature;humidity
42683;DHT22;28293;50.930;3.464;2023-08-01T00:00:16;16.90;90.60
42683;DHT22;28293;50.930;3.464;2023-08-01T00:02:42;16.80;90.60
42683;DHT22;28293;50.930;3.464;2023-08-01T00:05:08;16.80;90.80
42683;DHT22;28293;50.930;3.464;2023-08-01T00:07:33;16.80;90.80
42683;DHT22;28293;50.930;3.464;2023-08-01T00:09:59;16.70;90.60
42683;DHT22;28293;50.930;3.464;2023-08-01T00:12:25;16.80;90.70
42683;DHT22;28293;50.930;3.464;2023-08-01T00:14:51;16.80;90.70
42683;DHT22;28293;50.930;3.464;2023-08-01T00:17:17;16.70;90.70
42683;DHT22;28293;50.930;3.464;2023-08-01T00:19:42;16.70;90.70
42683;DHT22;28293;50.930;3.464;2023-08-01T00:22:08;16.70;90.80
42683;DHT22;28293;50.930;3.464;2023-08-01T00:24:35;16.60;90.80
42683;DHT22;28293;50.930;3.464;2023-08-01T00:27:01;16.60;90.90
42683;DHT22;28293;50.930;3.464;2023-08-01T00:29:27;16.60;91.10
42683;DHT22;28293;50.930;3.464;2023-08-01T00:31:52;16.50;91.20
42683;DHT22;28293;50.930;3.464;2023-08-01T00:34:18;16.60;91.20
42683;DHT22;28293;50.930;3.464;2023-08-01T00:36:43;16.60;91.10
42683;DHT22;28293;50.930;3.464;2023-08-01T00:39:09;16.50;91.10
42683;DHT22;28293;50.930;3.464;2023-08-01T00:41:35;16.50;91.30
42683;DHT22;28293;50.930;3.464;2023-08-01T00:44:00;16.50;91.10
42683;DHT22;28293;50.930;3.464;2023-08-01T00:46:26;16.50;91.30
42683;DHT22;28293;50.930;3.464;2023-08-01T00:48:53;16.50;91.10
42683;DHT22;28293;50.930;3.464;2023-08-01T00:51:19;16.60;91.10
42683;DHT22;28293;50.930;3.464;2023-08-01T00:53:45;16.60;90.90
42683;DHT22;28293;50.930;3.464;2023-08-01T00:56:11;16.50;90.90
42683;DHT22;28293;50.930;3.464;2023-08-01T00:58:37;16.50;90.90
42683;DHT22;28293;50.930;3.464;2023-08-01T01:01:03;16.50;91.00
42683;DHT22;28293;50.930;3.464;2023-08-01T01:03:29;16.50;90.90
42683;DHT22;28293;50.930;3.464;2023-08-01T01:06:14;16.50;91.00
42683;DHT22;28293;50.930;3.464;2023-08-01T01:08:42;16.40;91.10
42683;DHT22;28293;50.930;3.464;2023-08-01T01:11:07;16.40;91.20
42683;DHT22;28293;50.930;3.464;2023-08-01T01:13:33;16.30;91.40
42683;DHT22;28293;50.930;3.464;2023-08-01T01:15:59;16.30;91.40
42683;DHT22;28293;50.930;3.464;2023-08-01T01:18:25;16.40;91.40
42683;DHT22;28293;50.930;3.464;2023-08-01T01:20:51;16.30;91.30
42683;DHT22;28293;50.930;3.464;2023-08-01T01:23:17;16.30;91.30
42683;DHT22;28293;50.930;3.464;2023-08-01T01:25:43;16.20;91.30
42683;DHT22;28293;50.930;3.464;2023-08-01T01:28:11;16.30;91.50
42683;DHT22;28293;50.930;3.464;2023-08-01T01:30:38;16.30;91.30
42683;DHT22;28293;50.930;3.464;2023-08-01T01:33:04;16.30;91.30
42683;DHT22;28293;50.930;3.464;2023-08-01T01:35:32;16.20;91.30
42683;DHT22;28293;50.930;3.464;2023-08-01T01:37:58;16.20;91.20
42683;DHT22;28293;50.930;3.464;2023-08-01T01:40:29;16.20;91.20
42683;DHT22;28293;50.930;3.464;2023-08-01T01:42:55;16.10;91.40
42683;DHT22;28293;50.930;3.464;2023-08-01T01:45:21;16.10;91.50
42683;DHT22;28293;50.930;3.464;2023-08-01T01:47:46;16.10;91.40
42683;DHT22;28293;50.930;3.464;2023-08-01T01:50:12;16.10;91.30
42683;DHT22;28293;50.930;3.464;2023-08-01T01:52:37;16.10;91.30
42683;DHT22;28293;50.930;3.464;2023-08-01T01:55:03;16.10;91.30
42683;DHT22;28293;50.930;3.464;2023-08-01T01:57:29;16.10;91.50
42683;DHT22;28293;50.930;3.464;2023-08-01T01:59:55;16.10;91.40
42683;DHT22;28293;50.930;3.464;2023-08-01T02:02:20;16.10;91.40
42683;DHT22;28293;50.930;3.464;2023-08-01T02:04:47;16.10;91.40
42683;DHT22;28293;50.930;3.464;2023-08-01T02:07:13;16.10;91.30
42683;DHT22;28293;50.930;3.464;2023-08-01T02:09:40;16.10;91.40
42683;DHT22;28293;50.930;3.464;2023-08-01T02:12:05;16.10;91.40
42683;DHT22;28293;50.930;3.464;2023-08-01T02:14:33;16.10;91.40
42683;DHT22;28293;50.930;3.464;2023-08-01T02:16:59;16.10;91.40
42683;DHT22;28293;50.930;3.464;2023-08-01T02:19:24;16.20;91.50
42683;DHT22;28293;50.930;3.464;2023-08-01T02:21:50;16.20;91.40
42683;DHT22;28293;50.930;3.464;2023-08-01T02:24:16;16.10;91.40
42683;DHT22;28293;50.930;3.464;2023-08-01T02:26:41;16.20;91.00
42683;DHT22;28293;50.930;3.464;2023-08-01T02:29:07;16.20;90.90
42683;DHT22;28293;50.930;3.464;2023-08-01T02:31:33;16.10;90.90
42683;DHT22;28293;50.930;3.464;2023-08-01T02:33:58;16.20;91.00
42683;DHT22;28293;50.930;3.464;2023-08-01T02:36:24;16.10;91.00
42683;DHT22;28293;50.930;3.464;2023-08-01T02:38:50;16.10;91.00
42683;DHT22;28293;50.930;3.464;2023-08-01T02:41:15;16.10;91.00
42683;DHT22;28293;50.930;3.464;2023-08-01T02:43:41;16.10;91.00
42683;DHT22;28293;50.930;3.464;2023-08-01T02:46:07;16.10;91.10
42683;DHT22;28293;50.930;3.464;2023-08-01T02:48:32;16.10;91.10
42683;DHT22;28293;50.930;3.464;2023-08-01T02:50:58;16.10;91.20
42683;DHT22;28293;50.930;3.464;2023-08-01T02:53:24;16.10;91.30
42683;DHT22;28293;50.930;3.464;2023-08-01T02:55:49;16.10;91.30
42683;DHT22;28293;50.930;3.464;2023-08-01T02:58:15;16.20;91.20
42683;DHT22;28293;50.930;3.464;2023-08-01T03:00:41;16.10;91.10
42683;DHT22;28293;50.930;3.464;2023-08-01T03:03:07;16.20;91.20
42683;DHT22;28293;50.930;3.464;2023-08-01T03:05:35;16.20;91.30
42683;DHT22;28293;50.930;3.464;2023-08-01T03:08:00;16.20;91.20
42683;DHT22;28293;50.930;3.464;2023-08-01T03:10:26;16.20;91.20
42683;DHT22;28293;50.930;3.464;2023-08-01T03:12:52;16.10;91.10
42683;DHT22;28293;50.930;3.464;2023-08-01T03:15:17;16.20;91.10
42683;DHT22;28293;50.930;3.464;2023-08-01T03:17:43;16.20;91.00
42683;DHT22;28293;50.930;3.464;2023-08-01T03:20:09;16.10;91.00
42683;DHT22;28293;50.930;3.464;2023-08-01T03:22:38;16.20;91.20
42683;DHT22;28293;50.930;3.464;2023-08-01T03:25:05;16.10;91.30
42683;DHT22;28293;50.930;3.464;2023-08-01T03:27:33;16.10;91.20
42683;DHT22;28293;50.930;3.464;2023-08-01T03:29:59;16.10;91.20
42683;DHT22;28293;50.930;3.464;2023-08-01T03:32:25;16.10;91.10
42683;DHT22;28293;50.930;3.464;2023-08-01T03:34:50;16.10;91.20
42683;DHT22;28293;50.930;3.464;2023-08-01T03:37:16;16.00;91.20
42683;DHT22;28293;50.930;3.464;2023-08-01T03:39:42;16.10;91.30
42683;DHT22;28293;50.930;3.464;2023-08-01T03:42:08;16.00;91.30
42683;DHT22;28293;50.930;3.464;2023-08-01T03:44:34;16.10;91.40
42683;DHT22;28293;50.930;3.464;2023-08-01T03:46:59;16.10;91.50
42683;DHT22;28293;50.930;3.464;2023-08-01T03:49:25;16.10;91.40
42683;DHT22;28293;50.930;3.464;2023-08-01T03:51:51;16.10;91.40
42683;DHT22;28293;50.930;3.464;2023-08-01T03:54:17;16.10;91.40
42683;DHT22;28293;50.930;3.464;2023-08-01T03:56:42;16.10;91.40
42683;DHT22;28293;50.930;3.464;2023-08-01T03:59:13;16.20;91.40
42683;DHT22;28293;50.930;3.464;2023-08-01T04:01:40;16.20;91.20
42683;DHT22;28293;50.930;3.464;2023-08-01T04:04:06;16.20;91.20
42683;DHT22;28293;50.930;3.464;2023-08-01T04:06:32;16.20;91.10
42683;DHT22;28293;50.930;3.464;2023-08-01T04:08:57;16.10;91.10
42683;DHT22;28293;50.930;3.464;2023-08-01T04:11:25;16.10;91.10
42683;DHT22;28293;50.930;3.464;2023-08-01T04:13:52;16.20;91.10
42683;DHT22;28293;50.930;3.464;2023-08-01T04:16:17;16.20;91.00
42683;DHT22;28293;50.930;3.464;2023-08-01T04:18:43;16.20;90.90
42683;DHT22;28293;50.930;3.464;2023-08-01T04:21:09;16.20;90.80
42683;DHT22;28293;50.930;3.464;2023-08-01T04:23:34;16.20;90.90
42683;DHT22;28293;50.930;3.464;2023-08-01T04:26:00;16.20;90.90
42683;DHT22;28293;50.930;3.464;2023-08-01T04:28:26;16.20;90.60
42683;DHT22;28293;50.930;3.464;2023-08-01T04:30:52;16.20;90.80
42683;DHT22;28293;50.930;3.464;2023-08-01T04:33:18;16.30;90.60
42683;DHT22;28293;50.930;3.464;2023-08-01T04:35:43;16.30;90.30
42683;DHT22;28293;50.930;3.464;2023-08-01T04:38:09;16.30;90.30
42683;DHT22;28293;50.930;3.464;2023-08-01T04:40:36;16.30;90.20
42683;DHT22;28293;50.930;3.464;2023-08-01T04:43:02;16.30;90.30
42683;DHT22;28293;50.930;3.464;2023-08-01T04:45:28;16.30;90.10
42683;DHT22;28293;50.930;3.464;2023-08-01T04:47:54;16.30;90.30
42683;DHT22;28293;50.930;3.464;2023-08-01T04:50:19;16.30;90.10
42683;DHT22;28293;50.930;3.464;2023-08-01T04:52:45;16.30;90.00
42683;DHT22;28293;50.930;3.464;2023-08-01T04:55:11;16.30;89.90
42683;DHT22;28293;50.930;3.464;2023-08-01T04:57:37;16.40;90.00
42683;DHT22;28293;50.930;3.464;2023-08-01T05:00:03;16.40;89.90
42683;DHT22;28293;50.930;3.464;2023-08-01T05:02:29;16.40;90.00
42683;DHT22;28293;50.930;3.464;2023-08-01T05:04:55;16.40;89.90
42683;DHT22;28293;50.930;3.464;2023-08-01T05:07:21;16.40;89.90
42683;DHT22;28293;50.930;3.464;2023-08-01T05:09:46;16.40;89.80
42683;DHT22;28293;50.930;3.464;2023-08-01T05:12:12;16.40;89.90
42683;DHT22;28293;50.930;3.464;2023-08-01T05:14:38;16.40;90.00
42683;DHT22;28293;50.930;3.464;2023-08-01T05:17:04;16.30;89.90
42683;DHT22;28293;50.930;3.464;2023-08-01T05:19:29;16.40;90.10
42683;DHT22;28293;50.930;3.464;2023-08-01T05:21:55;16.30;90.10
42683;DHT22;28293;50.930;3.464;2023-08-01T05:24:21;16.40;90.00
42683;DHT22;28293;50.930;3.464;2023-08-01T05:26:47;16.40;90.00
42683;DHT22;28293;50.930;3.464;2023-08-01T05:29:13;16.40;89.80
42683;DHT22;28293;50.930;3.464;2023-08-01T05:31:38;16.40;89.80
42683;DHT22;28293;50.930;3.464;2023-08-01T05:34:04;16.40;89.60
42683;DHT22;28293;50.930;3.464;2023-08-01T05:36:30;16.40;89.60
42683;DHT22;28293;50.930;3.464;2023-08-01T05:38:56;16.50;89.50
42683;DHT22;28293;50.930;3.464;2023-08-01T05:41:22;16.50;89.50
42683;DHT22;28293;50.930;3.464;2023-08-01T05:43:48;16.60;89.50
42683;DHT22;28293;50.930;3.464;2023-08-01T05:46:15;16.60;89.30
42683;DHT22;28293;50.930;3.464;2023-08-01T05:48:40;16.60;89.10
42683;DHT22;28293;50.930;3.464;2023-08-01T05:51:06;16.70;88.90
42683;DHT22;28293;50.930;3.464;2023-08-01T05:53:32;16.70;88.90
42683;DHT22;28293;50.930;3.464;2023-08-01T05:55:58;16.80;88.70
42683;DHT22;28293;50.930;3.464;2023-08-01T05:58:24;16.90;88.30
42683;DHT22;28293;50.930;3.464;2023-08-01T06:00:49;17.30;87.70
42683;DHT22;28293;50.930;3.464;2023-08-01T06:03:15;17.50;86.00
42683;DHT22;28293;50.930;3.464;2023-08-01T06:05:41;17.60;85.90
42683;DHT22;28293;50.930;3.464;2023-08-01T06:08:07;17.80;85.30
42683;DHT22;28293;50.930;3.464;2023-08-01T06:10:34;17.60;85.50
42683;DHT22;28293;50.930;3.464;2023-08-01T06:13:00;17.70;85.70
42683;DHT22;28293;50.930;3.464;2023-08-01T06:15:25;17.80;85.70
42683;DHT22;28293;50.930;3.464;2023-08-01T06:17:51;17.90;84.80
42683;DHT22;28293;50.930;3.464;2023-08-01T06:20:17;18.10;84.80
42683;DHT22;28293;50.930;3.464;2023-08-01T06:22:42;18.10;84.20
42683;DHT22;28293;50.930;3.464;2023-08-01T06:25:08;18.10;84.20
42683;DHT22;28293;50.930;3.464;2023-08-01T06:27:34;18.10;84.20
42683;DHT22;28293;50.930;3.464;2023-08-01T06:30:00;18.10;83.80
42683;DHT22;28293;50.930;3.464;2023-08-01T06:32:26;18.10;84.10
42683;DHT22;28293;50.930;3.464;2023-08-01T06:34:52;18.20;84.10
42683;DHT22;28293;50.930;3.464;2023-08-01T06:37:17;18.30;84.10
42683;DHT22;28293;50.930;3.464;2023-08-01T06:39:43;18.50;83.30
42683;DHT22;28293;50.930;3.464;2023-08-01T06:42:09;18.30;82.90
42683;DHT22;28293;50.930;3.464;2023-08-01T06:44:35;18.10;83.40
42683;DHT22;28293;50.930;3.464;2023-08-01T06:47:00;18.10;83.80
42683;DHT22;28293;50.930;3.464;2023-08-01T06:49:26;17.90;84.00
42683;DHT22;28293;50.930;3.464;2023-08-01T06:51:52;17.70;84.70
42683;DHT22;28293;50.930;3.464;2023-08-01T06:54:17;17.60;85.10
42683;DHT22;28293;50.930;3.464;2023-08-01T06:56:43;17.60;85.60
42683;DHT22;28293;50.930;3.464;2023-08-01T06:59:13;17.60;86.00
42683;DHT22;28293;50.930;3.464;2023-08-01T07:01:40;17.60;85.70
42683;DHT22;28293;50.930;3.464;2023-08-01T07:04:09;17.40;85.80
42683;DHT22;28293;50.930;3.464;2023-08-01T07:06:34;17.50;85.70
42683;DHT22;28293;50.930;3.464;2023-08-01T07:09:00;17.60;85.30
42683;DHT22;28293;50.930;3.464;2023-08-01T07:11:26;17.70;85.20
42683;DHT22;28293;50.930;3.464;2023-08-01T07:13:52;17.70;84.60
42683;DHT22;28293;50.930;3.464;2023-08-01T07:16:17;17.80;84.80
42683;DHT22;28293;50.930;3.464;2023-08-01T07:18:43;18.00;83.50
42683;DHT22;28293;50.930;3.464;2023-08-01T07:21:09;18.10;82.90
42683;DHT22;28293;50.930;3.464;2023-08-01T07:23:35;18.20;83.10
42683;DHT22;28293;50.930;3.464;2023-08-01T07:26:01;18.40;81.90
42683;DHT22;28293;50.930;3.464;2023-08-01T07:28:27;18.40;81.30
42683;DHT22;28293;50.930;3.464;2023-08-01T07:31:00;18.60;80.60
42683;DHT22;28293;50.930;3.464;2023-08-01T07:33:27;18.70;80.30
42683;DHT22;28293;50.930;3.464;2023-08-01T07:35:52;19.00;79.90
42683;DHT22;28293;50.930;3.464;2023-08-01T07:38:18;18.90;79.20
42683;DHT22;28293;50.930;3.464;2023-08-01T07:40:44;18.90;79.70
42683;DHT22;28293;50.930;3.464;2023-08-01T07:43:11;19.00;79.20
42683;DHT22;28293;50.930;3.464;2023-08-01T07:45:38;19.10;78.80
42683;DHT22;28293;50.930;3.464;2023-08-01T07:48:04;19.30;78.60
42683;DHT22;28293;50.930;3.464;2023-08-01T07:50:32;19.20;77.10
42683;DHT22;28293;50.930;3.464;2023-08-01T07:52:58;19.20;76.90
42683;DHT22;28293;50.930;3.464;2023-08-01T07:55:24;19.10;78.50
42683;DHT22;28293;50.930;3.464;2023-08-01T07:57:50;19.40;77.10
42683;DHT22;28293;50.930;3.464;2023-08-01T08:00:16;19.00;77.30
42683;DHT22;28293;50.930;3.464;2023-08-01T08:02:42;18.70;78.00
42683;DHT22;28293;50.930;3.464;2023-08-01T08:05:09;18.80;78.00
42683;DHT22;28293;50.930;3.464;2023-08-01T08:07:36;18.90;77.80
42683;DHT22;28293;50.930;3.464;2023-08-01T08:10:06;19.00;77.50
42683;DHT22;28293;50.930;3.464;2023-08-01T08:12:32;19.00;77.30
42683;DHT22;28293;50.930;3.464;2023-08-01T08:14:57;19.30;77.00
42683;DHT22;28293;50.930;3.464;2023-08-01T08:17:23;19.50;76.30
42683;DHT22;28293;50.930;3.464;2023-08-01T08:19:49;19.30;76.40
42683;DHT22;28293;50.930;3.464;2023-08-01T08:22:14;19.70;76.20
42683;DHT22;28293;50.930;3.464;2023-08-01T08:24:40;19.50;75.40
42683;DHT22;28293;50.930;3.464;2023-08-01T08:27:06;19.60;75.70
42683;DHT22;28293;50.930;3.464;2023-08-01T08:29:32;19.80;75.20
42683;DHT22;28293;50.930;3.464;2023-08-01T08:31:58;20.00;73.20
42683;DHT22;28293;50.930;3.464;2023-08-01T08:34:24;20.10;72.80
42683;DHT22;28293;50.930;3.464;2023-08-01T08:36:50;20.10;73.40
42683;DHT22;28293;50.930;3.464;2023-08-01T08:39:17;20.30;72.10
42683;DHT22;28293;50.930;3.464;2023-08-01T08:41:48;20.10;73.20
42683;DHT22;28293;50.930;3.464;2023-08-01T08:44:18;20.00;73.40
42683;DHT22;28293;50.930;3.464;2023-08-01T08:46:49;20.10;72.60
42683;DHT22;28293;50.930;3.464;2023-08-01T08:49:15;20.40;73.20
42683;DHT22;28293;50.930;3.464;2023-08-01T08:51:42;20.60;71.50
42683;DHT22;28293;50.930;3.464;2023-08-01T08:54:09;20.60;70.90
42683;DHT22;28293;50.930;3.464;2023-08-01T08:56:35;20.70;70.90
42683;DHT22;28293;50.930;3.464;2023-08-01T08:59:01;20.90;69.80
42683;DHT22;28293;50.930;3.464;2023-08-01T09:01:27;21.10;70.20
42683;DHT22;28293;50.930;3.464;2023-08-01T09:03:53;21.00;68.70
42683;DHT22;28293;50.930;3.464;2023-08-01T09:06:24;20.80;68.50
42683;DHT22;28293;50.930;3.464;2023-08-01T09:08:52;20.80;68.40
42683;DHT22;28293;50.930;3.464;2023-08-01T09:11:21;21.20;68.50
42683;DHT22;28293;50.930;3.464;2023-08-01T09:13:47;21.10;67.90
42683;DHT22;28293;50.930;3.464;2023-08-01T09:16:15;21.10;66.80
42683;DHT22;28293;50.930;3.464;2023-08-01T09:18:51;20.70;68.80
42683;DHT22;28293;50.930;3.464;2023-08-01T09:21:23;20.50;68.00
42683;DHT22;28293;50.930;3.464;2023-08-01T09:23:48;20.30;69.30
42683;DHT22;28293;50.930;3.464;2023-08-01T09:26:15;20.60;69.60
42683;DHT22;28293;50.930;3.464;2023-08-01T09:28:41;20.70;68.20
42683;DHT22;28293;50.930;3.464;2023-08-01T09:31:07;20.90;68.60
42683;DHT22;28293;50.930;3.464;2023-08-01T09:33:42;21.10;67.60
42683;DHT22;28293;50.930;3.464;2023-08-01T09:36:08;21.20;67.70
42683;DHT22;28293;50.930;3.464;2023-08-01T09:38:35;21.20;67.30
42683;DHT22;28293;50.930;3.464;2023-08-01T09:41:06;21.20;67.70
42683;DHT22;28293;50.930;3.464;2023-08-01T09:43:35;21.50;67.60
42683;DHT22;28293;50.930;3.464;2023-08-01T09:46:02;22.10;64.60
42683;DHT22;28293;50.930;3.464;2023-08-01T09:48:29;22.20;63.90
42683;DHT22;28293;50.930;3.464;2023-08-01T09:51:11;22.30;65.30
42683;DHT22;28293;50.930;3.464;2023-08-01T09:53:51;22.10;64.10
42683;DHT22;28293;50.930;3.464;2023-08-01T09:56:23;21.80;64.10
42683;DHT22;28293;50.930;3.464;2023-08-01T09:58:50;21.60;64.50
42683;DHT22;28293;50.930;3.464;2023-08-01T10:01:18;21.10;67.40
42683;DHT22;28293;50.930;3.464;2023-08-01T10:03:48;20.80;68.40
42683;DHT22;28293;50.930;3.464;2023-08-01T10:06:20;20.60;67.90
42683;DHT22;28293;50.930;3.464;2023-08-01T10:08:47;20.10;68.70
42683;DHT22;28293;50.930;3.464;2023-08-01T10:11:17;20.10;69.30
42683;DHT22;28293;50.930;3.464;2023-08-01T10:13:43;20.40;69.50
42683;DHT22;28293;50.930;3.464;2023-08-01T10:16:10;20.60;69.60
42683;DHT22;28293;50.930;3.464;2023-08-01T10:18:37;21.10;68.40
42683;DHT22;28293;50.930;3.464;2023-08-01T10:21:05;21.20;66.60
42683;DHT22;28293;50.930;3.464;2023-08-01T10:23:32;21.40;64.90
42683;DHT22;28293;50.930;3.464;2023-08-01T10:25:59;21.50;63.10
42683;DHT22;28293;50.930;3.464;2023-08-01T10:28:33;21.60;63.80
42683;DHT22;28293;50.930;3.464;2023-08-01T10:31:13;21.30;64.20
42683;DHT22;28293;50.930;3.464;2023-08-01T10:33:41;21.30;65.20
42683;DHT22;28293;50.930;3.464;2023-08-01T10:38:53;21.60;65.20
42683;DHT22;28293;50.930;3.464;2023-08-01T10:41:27;22.10;64.30
42683;DHT22;28293;50.930;3.464;2023-08-01T10:44:16;22.10;63.10
42683;DHT22;28293;50.930;3.464;2023-08-01T10:47:01;21.60;64.70
42683;DHT22;28293;50.930;3.464;2023-08-01T10:49:38;21.30;64.40
42683;DHT22;28293;50.930;3.464;2023-08-01T10:54:43;20.80;65.00
42683;DHT22;28293;50.930;3.464;2023-08-01T10:57:18;21.20;64.90
42683;DHT22;28293;50.930;3.464;2023-08-01T10:59:44;21.70;63.30
42683;DHT22;28293;50.930;3.464;2023-08-01T11:02:10;22.10;61.60
42683;DHT22;28293;50.930;3.464;2023-08-01T11:04:36;22.00;61.20
42683;DHT22;28293;50.930;3.464;2023-08-01T11:07:01;21.40;61.30
42683;DHT22;28293;50.930;3.464;2023-08-01T11:09:29;21.00;63.00
42683;DHT22;28293;50.930;3.464;2023-08-01T11:11:57;20.70;64.50
42683;DHT22;28293;50.930;3.464;2023-08-01T11:14:27;20.50;65.70
42683;DHT22;28293;50.930;3.464;2023-08-01T11:16:57;20.30;67.30
42683;DHT22;28293;50.930;3.464;2023-08-01T11:19:27;20.30;68.50
42683;DHT22;28293;50.930;3.464;2023-08-01T11:21:54;20.40;68.00
42683;DHT22;28293;50.930;3.464;2023-08-01T11:24:22;20.30;67.50
42683;DHT22;28293;50.930;3.464;2023-08-01T11:26:49;20.20;68.60
42683;DHT22;28293;50.930;3.464;2023-08-01T11:29:16;20.10;69.60
42683;DHT22;28293;50.930;3.464;2023-08-01T11:31:58;20.00;71.00
42683;DHT22;28293;50.930;3.464;2023-08-01T11:34:25;19.90;71.40
42683;DHT22;28293;50.930;3.464;2023-08-01T11:36:51;20.00;72.40
42683;DHT22;28293;50.930;3.464;2023-08-01T11:39:17;20.10;72.10
42683;DHT22;28293;50.930;3.464;2023-08-01T11:41:43;20.30;71.70
42683;DHT22;28293;50.930;3.464;2023-08-01T11:44:09;20.60;70.30
42683;DHT22;28293;50.930;3.464;2023-08-01T11:46:37;20.60;70.30
42683;DHT22;28293;50.930;3.464;2023-08-01T11:49:07;20.60;69.80
42683;DHT22;28293;50.930;3.464;2023-08-01T11:51:43;20.60;69.80
42683;DHT22;28293;50.930;3.464;2023-08-01T11:54:10;20.60;69.60
42683;DHT22;28293;50.930;3.464;2023-08-01T11:56:37;20.80;69.60
42683;DHT22;28293;50.930;3.464;2023-08-01T11:59:17;21.20;68.60
42683;DHT22;28293;50.930;3.464;2023-08-01T12:01:44;21.90;67.60
42683;DHT22;28293;50.930;3.464;2023-08-01T12:04:11;22.50;65.60
42683;DHT22;28293;50.930;3.464;2023-08-01T12:06:37;22.60;64.10
42683;DHT22;28293;50.930;3.464;2023-08-01T12:09:11;22.60;62.40
42683;DHT22;28293;50.930;3.464;2023-08-01T12:11:39;22.50;63.60
42683;DHT22;28293;50.930;3.464;2023-08-01T12:16:36;22.50;60.80
42683;DHT22;28293;50.930;3.464;2023-08-01T12:19:01;22.30;61.40
42683;DHT22;28293;50.930;3.464;2023-08-01T12:21:28;22.40;60.10
42683;DHT22;28293;50.930;3.464;2023-08-01T12:23:54;22.50;58.00
42683;DHT22;28293;50.930;3.464;2023-08-01T12:26:20;22.30;58.30
42683;DHT22;28293;50.930;3.464;2023-08-01T12:28:46;22.20;59.30
42683;DHT22;28293;50.930;3.464;2023-08-01T12:31:16;22.10;59.70
42683;DHT22;28293;50.930;3.464;2023-08-01T12:33:42;21.90;60.20
42683;DHT22;28293;50.930;3.464;2023-08-01T12:36:08;22.10;58.70
42683;DHT22;28293;50.930;3.464;2023-08-01T12:38:34;22.10;59.90
42683;DHT22;28293;50.930;3.464;2023-08-01T12:41:00;22.10;58.80
42683;DHT22;28293;50.930;3.464;2023-08-01T12:43:26;21.80;57.60
42683;DHT22;28293;50.930;3.464;2023-08-01T12:45:52;21.80;59.00
42683;DHT22;28293;50.930;3.464;2023-08-01T12:48:18;22.00;60.00
42683;DHT22;28293;50.930;3.464;2023-08-01T12:50:47;22.50;59.00
42683;DHT22;28293;50.930;3.464;2023-08-01T12:53:14;22.50;58.00
42683;DHT22;28293;50.930;3.464;2023-08-01T12:55:46;21.90;59.10
42683;DHT22;28293;50.930;3.464;2023-08-01T12:58:12;21.70;60.10
42683;DHT22;28293;50.930;3.464;2023-08-01T13:00:39;21.30;61.40
42683;DHT22;28293;50.930;3.464;2023-08-01T13:03:05;21.10;60.70
42683;DHT22;28293;50.930;3.464;2023-08-01T13:05:37;21.00;60.90
42683;DHT22;28293;50.930;3.464;2023-08-01T13:08:04;20.80;61.00
42683;DHT22;28293;50.930;3.464;2023-08-01T13:10:34;20.60;61.10
42683;DHT22;28293;50.930;3.464;2023-08-01T13:13:00;20.40;61.90
42683;DHT22;28293;50.930;3.464;2023-08-01T13:15:26;20.40;61.70
42683;DHT22;28293;50.930;3.464;2023-08-01T13:17:53;20.40;62.60
42683;DHT22;28293;50.930;3.464;2023-08-01T13:20:19;20.60;62.00
42683;DHT22;28293;50.930;3.464;2023-08-01T13:22:50;20.70;62.20
42683;DHT22;28293;50.930;3.464;2023-08-01T13:25:17;20.90;61.70
42683;DHT22;28293;50.930;3.464;2023-08-01T13:27:43;21.70;61.80
42683;DHT22;28293;50.930;3.464;2023-08-01T13:30:09;22.10;59.20
42683;DHT22;28293;50.930;3.464;2023-08-01T13:32:35;22.10;58.90
42683;DHT22;28293;50.930;3.464;2023-08-01T13:35:01;22.20;58.90
42683;DHT22;28293;50.930;3.464;2023-08-01T13:37:27;21.90;60.00
42683;DHT22;28293;50.930;3.464;2023-08-01T13:39:56;21.80;59.80
42683;DHT22;28293;50.930;3.464;2023-08-01T13:42:22;21.80;60.40
42683;DHT22;28293;50.930;3.464;2023-08-01T13:44:47;22.00;60.10
42683;DHT22;28293;50.930;3.464;2023-08-01T13:47:13;21.80;58.10
42683;DHT22;28293;50.930;3.464;2023-08-01T13:49:39;21.50;59.70
42683;DHT22;28293;50.930;3.464;2023-08-01T13:52:05;21.40;61.00
42683;DHT22;28293;50.930;3.464;2023-08-01T13:54:31;21.40;61.10
42683;DHT22;28293;50.930;3.464;2023-08-01T13:56:57;21.40;63.10
42683;DHT22;28293;50.930;3.464;2023-08-01T13:59:23;21.00;65.20
42683;DHT22;28293;50.930;3.464;2023-08-01T14:01:49;20.80;68.90
42683;DHT22;28293;50.930;3.464;2023-08-01T14:04:14;20.70;68.10
42683;DHT22;28293;50.930;3.464;2023-08-01T14:06:41;20.60;68.40
42683;DHT22;28293;50.930;3.464;2023-08-01T14:09:08;20.50;67.90
42683;DHT22;28293;50.930;3.464;2023-08-01T14:11:35;20.50;68.90
42683;DHT22;28293;50.930;3.464;2023-08-01T14:14:01;20.60;69.20
42683;DHT22;28293;50.930;3.464;2023-08-01T14:16:27;20.30;70.00
42683;DHT22;28293;50.930;3.464;2023-08-01T14:18:53;20.10;70.60
42683;DHT22;28293;50.930;3.464;2023-08-01T14:21:19;19.80;71.00
42683;DHT22;28293;50.930;3.464;2023-08-01T14:23:45;19.70;71.20
42683;DHT22;28293;50.930;3.464;2023-08-01T14:26:11;19.60;71.90
42683;DHT22;28293;50.930;3.464;2023-08-01T14:28:37;19.70;71.80
42683;DHT22;28293;50.930;3.464;2023-08-01T14:31:03;19.60;71.90
42683;DHT22;28293;50.930;3.464;2023-08-01T14:33:29;19.80;73.10
42683;DHT22;28293;50.930;3.464;2023-08-01T14:35:56;19.80;71.60
42683;DHT22;28293;50.930;3.464;2023-08-01T14:38:22;19.90;71.60
42683;DHT22;28293;50.930;3.464;2023-08-01T14:40:48;19.90;71.90
42683;DHT22;28293;50.930;3.464;2023-08-01T14:43:14;20.00;70.80
42683;DHT22;28293;50.930;3.464;2023-08-01T14:45:40;20.10;71.00
42683;DHT22;28293;50.930;3.464;2023-08-01T14:48:07;20.00;71.20
42683;DHT22;28293;50.930;3.464;2023-08-01T14:50:33;20.00;71.20
42683;DHT22;28293;50.930;3.464;2023-08-01T14:52:59;20.00;71.90
42683;DHT22;28293;50.930;3.464;2023-08-01T14:55:27;20.00;71.20
42683;DHT22;28293;50.930;3.464;2023-08-01T14:57:52;20.10;71.60
42683;DHT22;28293;50.930;3.464;2023-08-01T15:00:18;20.10;71.00
42683;DHT22;28293;50.930;3.464;2023-08-01T15:02:44;20.40;69.60
42683;DHT22;28293;50.930;3.464;2023-08-01T15:05:12;20.60;68.70
42683;DHT22;28293;50.930;3.464;2023-08-01T15:07:38;20.80;68.50
42683;DHT22;28293;50.930;3.464;2023-08-01T15:10:03;21.00;66.90
42683;DHT22;28293;50.930;3.464;2023-08-01T15:12:29;21.00;66.40
42683;DHT22;28293;50.930;3.464;2023-08-01T15:14:55;21.20;65.60
42683;DHT22;28293;50.930;3.464;2023-08-01T15:17:22;21.10;66.10
42683;DHT22;28293;50.930;3.464;2023-08-01T15:19:48;20.90;66.50
42683;DHT22;28293;50.930;3.464;2023-08-01T15:22:14;21.00;67.20
42683;DHT22;28293;50.930;3.464;2023-08-01T15:24:40;21.00;67.30
42683;DHT22;28293;50.930;3.464;2023-08-01T15:27:06;20.90;67.00
42683;DHT22;28293;50.930;3.464;2023-08-01T15:29:32;20.90;67.40
42683;DHT22;28293;50.930;3.464;2023-08-01T15:31:57;20.70;67.90
42683;DHT22;28293;50.930;3.464;2023-08-01T15:34:23;20.50;68.80